createdAt,value
2019-02-24T00:02:09.357Z,4.20
2019-02-24T00:04:35.372Z,4.10
2019-02-24T00:07:02.141Z,4.10
2019-02-24T00:09:28.147Z,4.10
2019-02-24T00:11:54.220Z,4.10
2019-02-24T00:14:20.349Z,4.00
2019-02-24T00:16:46.685Z,4.00
2019-02-24T00:19:12.695Z,4.10
2019-02-24T00:21:38.732Z,4.10
2019-02-24T00:24:04.768Z,4.10
2019-02-24T00:26:30.796Z,4.10
2019-02-24T00:28:56.855Z,4.10
2019-02-24T00:31:22.889Z,4.10
2019-02-24T00:33:48.899Z,4.00
2019-02-24T00:36:14.915Z,4.00
2019-02-24T00:38:40.951Z,4.00
2019-02-24T00:41:06.967Z,4.00
2019-02-24T00:43:32.995Z,3.90
2019-02-24T00:46:18.892Z,3.90
2019-02-24T00:48:44.924Z,3.90
2019-02-24T00:51:11.029Z,3.90
2019-02-24T00:53:37.095Z,4.00
2019-02-24T00:56:03.147Z,4.00
2019-02-24T00:58:29.179Z,4.00
2019-02-24T01:00:55.595Z,4.00
2019-02-24T01:03:21.627Z,3.90
2019-02-24T01:05:47.658Z,3.90
2019-02-24T01:08:13.698Z,4.00
2019-02-24T01:10:39.879Z,3.90
2019-02-24T01:13:06.007Z,4.00
2019-02-24T01:15:32.039Z,4.00
2019-02-24T01:17:58.176Z,3.90
2019-02-24T01:20:24.183Z,4.00
2019-02-24T01:22:50.216Z,3.90
2019-02-24T01:25:16.230Z,3.90
2019-02-24T01:27:42.261Z,4.00
2019-02-24T01:30:09.387Z,3.80
2019-02-24T01:32:35.428Z,3.80
2019-02-24T01:35:01.433Z,3.80
2019-02-24T01:37:27.468Z,3.80
2019-02-24T01:39:53.480Z,3.80
2019-02-24T01:42:19.519Z,3.80
2019-02-24T01:44:45.544Z,3.70
2019-02-24T01:47:11.579Z,3.70
2019-02-24T01:49:37.691Z,3.70
2019-02-24T01:52:03.771Z,3.70
2019-02-24T01:54:29.787Z,3.70
2019-02-24T01:56:55.803Z,3.70
2019-02-24T01:59:21.835Z,3.70
2019-02-24T02:01:47.866Z,3.70
2019-02-24T02:04:13.902Z,3.70
2019-02-24T02:06:39.915Z,3.70
2019-02-24T02:09:05.959Z,3.60
2019-02-24T02:11:31.981Z,3.60
2019-02-24T02:14:02.064Z,3.70
2019-02-24T02:16:28.078Z,3.60
2019-02-24T02:18:54.106Z,3.60
2019-02-24T02:21:20.122Z,3.60
2019-02-24T02:23:46.165Z,3.60
2019-02-24T02:26:12.200Z,3.60
2019-02-24T02:28:44.034Z,3.50
2019-02-24T02:31:06.148Z,3.60
2019-02-24T02:33:32.187Z,3.60
2019-02-24T02:35:58.199Z,3.50
2019-02-24T02:38:24.231Z,3.50
2019-02-24T02:40:50.339Z,3.50
2019-02-24T02:43:16.394Z,3.50
2019-02-24T02:45:42.426Z,3.50
2019-02-24T02:48:08.610Z,3.50
2019-02-24T02:50:34.687Z,3.50
2019-02-24T02:53:01.377Z,3.50
2019-02-24T02:55:27.373Z,3.40
2019-02-24T02:57:53.434Z,3.40
2019-02-24T03:00:26.195Z,3.40
2019-02-24T03:02:52.223Z,3.40
2019-02-24T03:05:18.231Z,3.40
2019-02-24T03:07:46.199Z,3.50
2019-02-24T03:10:12.244Z,3.50
2019-02-24T03:12:38.250Z,3.50
2019-02-24T03:15:04.409Z,3.50
2019-02-24T03:17:30.426Z,3.40
2019-02-24T03:19:56.457Z,3.40
2019-02-24T03:22:22.570Z,3.40
2019-02-24T03:24:48.596Z,3.30
2019-02-24T03:27:14.614Z,3.30
2019-02-24T03:29:40.664Z,3.30
2019-02-24T03:32:06.671Z,3.30
2019-02-24T03:34:32.800Z,3.30
2019-02-24T03:36:58.815Z,3.30
2019-02-24T03:39:24.851Z,3.30
2019-02-24T03:41:50.863Z,3.30
2019-02-24T03:44:16.888Z,3.30
2019-02-24T03:46:42.900Z,3.30
2019-02-24T03:49:08.931Z,3.30
2019-02-24T03:51:34.939Z,3.20
2019-02-24T03:54:01.856Z,3.20
2019-02-24T03:56:27.869Z,3.10
2019-02-24T03:58:53.896Z,3.10
2019-02-24T04:01:19.916Z,3.10
2019-02-24T04:03:46.166Z,3.00
2019-02-24T04:06:12.208Z,3.00
2019-02-24T04:08:38.223Z,3.10
2019-02-24T04:11:04.260Z,3.10
2019-02-24T04:13:30.276Z,3.20
2019-02-24T04:15:56.392Z,3.20
2019-02-24T04:18:22.404Z,3.20
2019-02-24T04:20:48.436Z,3.10
2019-02-24T04:23:14.471Z,3.10
2019-02-24T04:25:40.505Z,3.10
2019-02-24T04:28:06.521Z,3.10
2019-02-24T04:30:32.561Z,3.10
2019-02-24T04:32:58.628Z,3.20
2019-02-24T04:35:24.663Z,3.30
2019-02-24T04:37:50.678Z,3.30
2019-02-24T04:40:16.710Z,3.30
2019-02-24T04:42:42.711Z,3.30
2019-02-24T04:45:08.839Z,3.30
2019-02-24T04:47:34.947Z,3.30
2019-02-24T04:50:01.428Z,3.30
2019-02-24T04:52:27.439Z,3.30
2019-02-24T04:54:53.467Z,3.20
2019-02-24T04:57:19.492Z,3.20
2019-02-24T04:59:45.523Z,3.20
2019-02-24T05:02:11.606Z,3.30
2019-02-24T05:04:37.640Z,3.30
2019-02-24T05:07:03.647Z,3.30
2019-02-24T05:09:29.679Z,3.30
2019-02-24T05:11:55.699Z,3.30
2019-02-24T05:14:21.743Z,3.30
2019-02-24T05:16:47.768Z,3.30
2019-02-24T05:19:13.772Z,3.30
2019-02-24T05:21:39.800Z,3.20
2019-02-24T05:24:05.872Z,3.20
2019-02-24T05:26:31.891Z,3.20
2019-02-24T05:28:57.904Z,3.20
2019-02-24T05:31:23.927Z,3.20
2019-02-24T05:33:49.935Z,3.20
2019-02-24T05:36:15.963Z,3.20
2019-02-24T05:38:42.013Z,3.20
2019-02-24T05:41:08.052Z,3.20
2019-02-24T05:43:34.077Z,3.20
2019-02-24T05:46:00.083Z,3.20
2019-02-24T05:48:26.106Z,3.20
2019-02-24T05:50:52.119Z,3.20
2019-02-24T05:53:18.159Z,3.20
2019-02-24T05:55:44.172Z,3.20
2019-02-24T05:58:10.226Z,3.10
2019-02-24T06:00:36.536Z,3.10
2019-02-24T06:03:02.574Z,3.10
2019-02-24T06:05:28.583Z,3.10
2019-02-24T06:07:54.625Z,3.10
2019-02-24T06:10:20.639Z,3.00
2019-02-24T06:12:46.669Z,3.00
2019-02-24T06:15:12.775Z,3.00
2019-02-24T06:17:38.888Z,3.00
2019-02-24T06:20:05.117Z,3.00
2019-02-24T06:22:31.123Z,3.00
2019-02-24T06:24:57.146Z,3.00
2019-02-24T06:27:23.164Z,3.00
2019-02-24T06:29:49.188Z,3.00
2019-02-24T06:32:15.212Z,3.00
2019-02-24T06:34:41.235Z,3.10
2019-02-24T06:37:07.265Z,3.10
2019-02-24T06:39:33.320Z,3.10
2019-02-24T06:41:59.326Z,3.00
2019-02-24T06:44:25.356Z,3.00
2019-02-24T06:46:51.385Z,3.00
2019-02-24T06:49:17.909Z,3.00
2019-02-24T06:51:43.922Z,3.00
2019-02-24T06:54:09.951Z,3.10
2019-02-24T06:56:36.208Z,3.10
2019-02-24T06:59:02.214Z,3.10
2019-02-24T07:01:28.247Z,3.20
2019-02-24T07:03:54.672Z,3.20
2019-02-24T07:06:20.767Z,3.30
2019-02-24T07:08:46.807Z,3.40
2019-02-24T07:11:12.906Z,3.40
2019-02-24T07:13:39.052Z,3.50
2019-02-24T07:16:05.083Z,3.60
2019-02-24T07:18:31.180Z,3.70
2019-02-24T07:20:57.211Z,3.70
2019-02-24T07:23:23.373Z,3.80
2019-02-24T07:25:49.460Z,3.80
2019-02-24T07:28:15.492Z,3.90
2019-02-24T07:30:41.502Z,4.00
2019-02-24T07:33:07.528Z,4.00
2019-02-24T07:35:33.534Z,4.10
2019-02-24T07:37:59.671Z,4.20
2019-02-24T07:40:25.691Z,4.20
2019-02-24T07:42:51.719Z,4.20
2019-02-24T07:45:17.733Z,4.30
2019-02-24T07:47:43.767Z,4.30
2019-02-24T07:50:09.787Z,4.40
2019-02-24T07:52:35.823Z,4.40
2019-02-24T07:55:02.772Z,4.40
2019-02-24T07:57:28.898Z,4.50
2019-02-24T07:59:54.972Z,4.50
2019-02-24T08:02:21.003Z,4.50
2019-02-24T08:04:47.015Z,4.50
2019-02-24T08:07:13.059Z,4.60
2019-02-24T08:09:39.075Z,4.60
2019-02-24T08:12:05.092Z,4.60
2019-02-24T08:14:31.151Z,4.70
2019-02-24T08:16:57.159Z,4.70
2019-02-24T08:19:23.252Z,4.80
2019-02-24T08:21:49.268Z,4.80
2019-02-24T08:24:15.302Z,4.90
2019-02-24T08:26:41.338Z,5.00
2019-02-24T08:29:07.439Z,5.00
2019-02-24T08:31:33.452Z,5.10
2019-02-24T08:33:59.481Z,5.10
2019-02-24T08:36:25.636Z,5.20
2019-02-24T08:38:51.897Z,5.30
2019-02-24T08:41:17.899Z,5.40
2019-02-24T08:43:43.936Z,5.50
2019-02-24T08:46:09.971Z,5.50
2019-02-24T08:48:36.391Z,5.60
2019-02-24T08:51:02.459Z,5.70
2019-02-24T08:53:28.492Z,5.80
2019-02-24T08:55:54.507Z,5.90
2019-02-24T08:58:20.550Z,6.00
2019-02-24T09:00:51.118Z,6.10
2019-02-24T09:03:14.491Z,6.20
2019-02-24T09:05:40.508Z,6.20
2019-02-24T09:08:06.543Z,6.40
2019-02-24T09:10:32.555Z,6.50
2019-02-24T09:12:58.607Z,6.50
2019-02-24T09:15:24.616Z,6.60
2019-02-24T09:17:50.660Z,6.70
2019-02-24T09:20:16.676Z,6.80
2019-02-24T09:22:43.079Z,6.90
2019-02-24T09:25:09.219Z,6.90
2019-02-24T09:27:35.231Z,7.10
2019-02-24T09:30:03.087Z,7.20
2019-02-24T09:32:29.100Z,7.30
2019-02-24T09:37:21.533Z,7.50
2019-02-24T09:39:47.551Z,7.60
2019-02-24T09:42:13.564Z,7.70
2019-02-24T09:44:39.592Z,7.80
2019-02-24T09:47:05.618Z,7.80
2019-02-24T09:49:31.646Z,7.90
2019-02-24T09:51:57.660Z,8.00
2019-02-24T09:54:23.711Z,8.10
2019-02-24T09:56:49.829Z,8.20
2019-02-24T09:59:15.855Z,8.30
2019-02-24T10:01:41.880Z,8.30
2019-02-24T10:04:07.908Z,8.40
2019-02-24T10:06:33.928Z,8.50
2019-02-24T10:08:59.959Z,8.80
2019-02-24T10:11:25.972Z,8.70
2019-02-24T10:13:52.004Z,8.80
2019-02-24T10:16:18.019Z,8.80
2019-02-24T10:19:03.947Z,8.90
2019-02-24T10:21:29.959Z,9.00
2019-02-24T10:23:55.987Z,9.10
2019-02-24T10:26:22.008Z,9.20
2019-02-24T10:28:48.083Z,9.30
2019-02-24T10:31:19.898Z,9.30
2019-02-24T10:33:42.028Z,9.40
2019-02-24T10:36:08.039Z,9.50
2019-02-24T10:38:34.071Z,9.60
2019-02-24T10:41:00.128Z,9.70
2019-02-24T10:43:26.163Z,9.80
2019-02-24T10:45:52.172Z,9.80
2019-02-24T10:48:18.204Z,9.90
2019-02-24T10:50:44.219Z,10.10
2019-02-24T10:53:10.360Z,10.20
2019-02-24T10:55:36.371Z,10.30
2019-02-24T10:58:02.408Z,10.30
2019-02-24T11:00:28.426Z,10.40
2019-02-24T11:02:54.547Z,10.40
2019-02-24T11:05:20.592Z,10.50
2019-02-24T11:07:46.646Z,10.60
2019-02-24T11:10:12.810Z,10.60
2019-02-24T11:12:38.907Z,10.70
2019-02-24T11:15:06.959Z,10.80
2019-02-24T11:17:33.070Z,10.90
2019-02-24T11:19:59.128Z,10.90
2019-02-24T11:22:25.133Z,11.00
2019-02-24T11:24:52.219Z,11.10
2019-02-24T11:27:18.235Z,11.20
2019-02-24T11:29:44.285Z,11.30
2019-02-24T11:32:10.295Z,11.30
2019-02-24T11:34:36.331Z,11.30
2019-02-24T11:37:02.411Z,11.50
2019-02-24T11:39:28.443Z,11.60
2019-02-24T11:41:54.555Z,11.70
2019-02-24T11:44:20.587Z,11.80
2019-02-24T11:46:46.603Z,11.80
2019-02-24T11:49:12.636Z,11.90
2019-02-24T11:51:38.649Z,11.90
2019-02-24T11:54:04.679Z,11.90
2019-02-24T11:56:30.783Z,12.00
2019-02-24T11:58:56.815Z,12.10
2019-02-24T12:01:22.828Z,12.10
2019-02-24T12:03:48.859Z,12.10
2019-02-24T12:06:14.875Z,12.10
2019-02-24T12:08:40.916Z,12.20
2019-02-24T12:11:26.809Z,12.20
2019-02-24T12:13:52.839Z,12.10
2019-02-24T12:16:18.847Z,12.30
2019-02-24T12:18:44.887Z,12.40
2019-02-24T12:21:10.905Z,12.50
2019-02-24T12:23:37.179Z,12.60
2019-02-24T12:39:14.394Z,12.80
2019-02-24T12:41:57.756Z,12.80
2019-02-24T12:44:23.839Z,12.90
2019-02-24T12:53:42.958Z,13.10
2019-02-24T12:59:39.182Z,13.10
2019-02-24T13:02:05.898Z,13.20
2019-02-24T13:04:32.355Z,13.20
2019-02-24T13:06:58.379Z,13.20
2019-02-24T13:09:24.411Z,13.30
2019-02-24T13:11:50.425Z,13.20
2019-02-24T13:14:16.592Z,13.30
2019-02-24T13:16:42.607Z,13.40
2019-02-24T13:19:08.643Z,13.40
2019-02-24T13:21:34.775Z,13.50
2019-02-24T13:24:00.875Z,13.50
2019-02-24T13:26:26.904Z,13.50
2019-02-24T13:28:52.921Z,13.50
2019-02-24T13:31:18.988Z,13.60
2019-02-24T13:33:44.999Z,13.70
2019-02-24T13:36:11.032Z,13.70
2019-02-24T13:38:37.046Z,13.70
2019-02-24T13:41:03.344Z,13.70
2019-02-24T13:43:29.371Z,13.70
2019-02-24T13:45:55.410Z,13.70
2019-02-24T13:48:21.420Z,13.70
2019-02-24T13:50:47.460Z,13.80
2019-02-24T13:53:13.485Z,13.80
2019-02-24T13:55:39.511Z,13.80
2019-02-24T13:58:05.533Z,13.80
2019-02-24T14:00:31.669Z,13.80
2019-02-24T14:02:57.700Z,13.80
2019-02-24T14:05:23.798Z,13.80
2019-02-24T14:07:49.803Z,13.80
2019-02-24T14:10:15.839Z,13.80
2019-02-24T14:12:41.852Z,13.80
2019-02-24T14:15:12.536Z,13.80
2019-02-24T14:17:38.544Z,13.80
2019-02-24T14:20:07.895Z,13.80
2019-02-24T14:22:34.007Z,13.80
2019-02-24T14:25:00.045Z,13.80
2019-02-24T14:27:26.056Z,13.80
2019-02-24T14:29:52.090Z,13.80
2019-02-24T14:32:18.120Z,13.70
2019-02-24T14:34:44.143Z,13.80
2019-02-24T14:37:10.168Z,13.70
2019-02-24T14:39:36.179Z,13.70
2019-02-24T14:42:04.059Z,13.70
2019-02-24T14:44:30.155Z,13.70
2019-02-24T14:46:57.238Z,13.70
2019-02-24T14:49:23.303Z,13.60
2019-02-24T14:51:49.327Z,13.60
2019-02-24T14:54:15.335Z,13.60
2019-02-24T14:56:41.401Z,13.50
2019-02-24T14:59:07.416Z,13.50
2019-02-24T15:01:33.647Z,13.50
2019-02-24T15:03:59.695Z,13.50
2019-02-24T15:06:25.723Z,13.50
2019-02-24T15:08:51.747Z,13.40
2019-02-24T15:11:17.772Z,13.40
2019-02-24T15:13:43.779Z,13.40
2019-02-24T15:16:11.727Z,13.50
2019-02-24T15:18:37.739Z,13.40
2019-02-24T15:21:03.852Z,13.40
2019-02-24T15:23:29.900Z,13.40
2019-02-24T15:25:55.992Z,13.30
2019-02-24T15:28:22.023Z,13.30
2019-02-24T15:30:48.035Z,13.30
2019-02-24T15:33:14.059Z,13.30
2019-02-24T15:35:40.082Z,13.20
2019-02-24T15:38:06.114Z,13.20
2019-02-24T15:40:32.127Z,13.10
2019-02-24T15:42:58.154Z,13.10
2019-02-24T15:45:24.183Z,13.00
2019-02-24T15:47:50.268Z,13.00
2019-02-24T15:50:16.328Z,13.00
2019-02-24T15:52:42.359Z,12.90
2019-02-24T15:55:10.574Z,12.90
2019-02-24T15:57:36.583Z,12.90
2019-02-24T16:00:12.191Z,12.80
2019-02-24T16:02:38.205Z,12.80
2019-02-24T16:05:06.635Z,12.80
2019-02-24T16:07:32.651Z,12.80
2019-02-24T16:09:59.091Z,12.70
2019-02-24T16:12:25.103Z,12.70
2019-02-24T16:14:51.131Z,12.70
2019-02-24T16:17:17.143Z,12.60
2019-02-24T16:19:43.819Z,12.50
2019-02-24T16:22:09.846Z,12.50
2019-02-24T16:24:35.882Z,12.50
2019-02-24T16:27:02.007Z,12.40
2019-02-24T16:29:28.031Z,12.30
2019-02-24T16:31:54.043Z,12.20
2019-02-24T16:34:20.067Z,12.20
2019-02-24T16:36:46.075Z,12.20
2019-02-24T16:39:12.115Z,12.10
2019-02-24T16:41:38.131Z,12.00
2019-02-24T16:44:04.157Z,11.90
2019-02-24T16:46:30.169Z,11.80
2019-02-24T16:48:56.205Z,11.80
2019-02-24T16:51:22.211Z,11.70
2019-02-24T16:53:48.243Z,11.50
2019-02-24T16:56:14.252Z,11.40
2019-02-24T16:58:40.295Z,11.40
2019-02-24T17:01:06.307Z,11.40
2019-02-24T17:03:32.436Z,11.40
2019-02-24T17:05:58.449Z,11.20
2019-02-24T17:08:24.483Z,11.10
2019-02-24T17:10:50.497Z,11.00
2019-02-24T17:13:16.503Z,11.00
2019-02-24T17:15:42.547Z,10.90
2019-02-24T17:18:08.568Z,10.80
2019-02-24T17:20:34.599Z,10.80
2019-02-24T17:23:00.613Z,10.70
2019-02-24T17:25:26.638Z,10.80
2019-02-24T17:27:52.645Z,10.80
2019-02-24T17:30:19.579Z,10.80
2019-02-24T17:32:45.584Z,10.70
2019-02-24T17:35:12.347Z,10.60
2019-02-24T17:37:38.368Z,10.60
2019-02-24T17:40:10.987Z,10.50
2019-02-24T17:42:37.851Z,10.50
2019-02-24T17:45:07.079Z,10.40
2019-02-24T17:47:33.091Z,10.40
2019-02-24T17:49:59.155Z,10.40
2019-02-24T17:52:25.231Z,10.30
2019-02-24T17:54:51.259Z,10.30
2019-02-24T17:57:17.263Z,10.20
2019-02-24T17:59:43.291Z,10.10
2019-02-24T18:02:09.298Z,10.00
2019-02-24T18:04:35.331Z,10.00
2019-02-24T18:07:01.344Z,10.00
2019-02-24T18:09:27.372Z,9.90
2019-02-24T18:11:53.392Z,9.90
2019-02-24T18:14:19.415Z,9.90
2019-02-24T18:16:45.436Z,9.90
2019-02-24T18:19:11.463Z,9.80
2019-02-24T18:21:37.475Z,9.80
2019-02-24T18:24:03.507Z,9.70
2019-02-24T18:26:29.523Z,9.80
2019-02-24T18:28:55.537Z,9.70
2019-02-24T18:31:21.781Z,9.70
2019-02-24T18:33:48.549Z,9.60
2019-02-24T18:36:14.852Z,9.60
2019-02-24T18:38:40.865Z,9.50
2019-02-24T18:41:06.894Z,9.40
2019-02-24T18:43:32.906Z,9.40
2019-02-24T18:45:58.953Z,9.30
2019-02-24T18:48:24.961Z,9.30
2019-02-24T18:50:50.997Z,9.30
2019-02-24T18:53:17.006Z,9.30
2019-02-24T18:55:43.067Z,9.30
2019-02-24T18:58:09.375Z,9.30
2019-02-24T19:00:35.415Z,9.30
2019-02-24T19:03:01.419Z,9.20
2019-02-24T19:05:27.447Z,9.20
2019-02-24T19:07:53.453Z,9.20
2019-02-24T19:10:21.483Z,9.10
2019-02-24T19:12:47.796Z,9.10
2019-02-24T19:15:15.752Z,9.10
2019-02-24T19:17:41.763Z,9.10
2019-02-24T19:20:10.694Z,9.10
2019-02-24T19:22:36.711Z,9.10
2019-02-24T19:25:04.841Z,9.00
2019-02-24T19:27:30.856Z,8.80
2019-02-24T19:29:56.894Z,8.80
2019-02-24T19:32:22.895Z,8.80
2019-02-24T19:34:48.955Z,8.90
2019-02-24T19:37:14.980Z,8.90
2019-02-24T19:39:41.017Z,8.80
2019-02-24T19:42:07.028Z,8.80
2019-02-24T19:44:33.056Z,8.80
2019-02-24T19:46:59.063Z,8.70
2019-02-24T19:49:25.071Z,8.70
2019-02-24T19:51:51.103Z,8.60
2019-02-24T19:54:17.111Z,8.50
2019-02-24T19:56:43.372Z,8.50
2019-02-24T19:59:09.379Z,8.50
2019-02-24T20:01:35.404Z,8.40
2019-02-24T20:04:01.412Z,8.30
2019-02-24T20:06:27.477Z,8.30
2019-02-24T20:08:53.564Z,8.30
2019-02-24T20:11:19.611Z,8.30
2019-02-24T20:13:45.619Z,8.30
2019-02-24T20:16:11.668Z,8.30
2019-02-24T20:18:37.699Z,8.30
2019-02-24T20:21:03.826Z,8.20
2019-02-24T20:23:29.830Z,8.20
2019-02-24T20:25:55.860Z,8.20
2019-02-24T20:28:21.874Z,8.30
2019-02-24T20:30:47.919Z,8.20
2019-02-24T20:33:14.023Z,8.20
2019-02-24T20:35:41.348Z,8.20
2019-02-24T20:38:07.494Z,8.10
2019-02-24T20:40:34.580Z,8.10
2019-02-24T20:43:00.599Z,8.10
2019-02-24T20:45:26.636Z,8.10
2019-02-24T20:47:53.148Z,8.10
2019-02-24T20:50:21.883Z,8.10
2019-02-24T20:52:47.902Z,8.10
2019-02-24T20:55:13.936Z,8.10
2019-02-24T20:57:39.958Z,8.00
2019-02-24T21:00:38.533Z,8.00
2019-02-24T21:03:04.544Z,7.90
2019-02-24T21:05:30.599Z,7.90
2019-02-24T21:07:56.611Z,7.90
2019-02-24T21:10:22.647Z,7.90
2019-02-24T21:12:48.662Z,7.90
2019-02-24T21:15:16.183Z,7.90
2019-02-24T21:17:42.387Z,7.90
2019-02-24T21:20:15.256Z,7.90
2019-02-24T21:22:41.348Z,7.90
2019-02-24T21:25:07.480Z,7.80
2019-02-24T21:27:33.499Z,7.80
2019-02-24T21:29:59.532Z,7.80
2019-02-24T21:32:25.560Z,7.70
2019-02-24T21:34:51.572Z,7.70
2019-02-24T21:37:17.623Z,7.70
2019-02-24T21:39:43.628Z,7.70
2019-02-24T21:42:09.668Z,7.70
2019-02-24T21:44:35.684Z,7.70
2019-02-24T21:47:01.715Z,7.70
2019-02-24T21:49:27.753Z,7.70
2019-02-24T21:51:53.779Z,7.60
2019-02-24T21:54:19.896Z,7.60
2019-02-24T21:56:45.923Z,7.60
2019-02-24T21:59:12.940Z,7.60
2019-02-24T22:01:38.985Z,7.60
2019-02-24T22:04:05.000Z,7.60
2019-02-24T22:06:31.038Z,7.50
2019-02-24T22:08:57.054Z,7.50
2019-02-24T22:11:23.081Z,7.50
2019-02-24T22:13:49.108Z,7.40
2019-02-24T22:16:15.167Z,7.50
2019-02-24T22:18:41.227Z,7.50
2019-02-24T22:21:07.259Z,7.50
2019-02-24T22:23:33.337Z,7.40
2019-02-24T22:25:59.370Z,7.40
2019-02-24T22:28:25.376Z,7.40
2019-02-24T22:30:51.407Z,7.30
2019-02-24T22:33:17.510Z,7.30
2019-02-24T22:35:43.527Z,7.30
2019-02-24T22:38:09.561Z,7.30
2019-02-24T22:40:35.579Z,7.30
2019-02-24T22:43:01.615Z,7.30
2019-02-24T22:45:28.671Z,7.20
2019-02-24T22:47:54.707Z,7.10
2019-02-24T22:50:20.736Z,7.10
2019-02-24T22:52:46.793Z,7.10
2019-02-24T22:55:14.200Z,7.10
2019-02-24T22:57:40.346Z,7.10
2019-02-24T23:00:23.027Z,7.10
2019-02-24T23:02:49.056Z,7.10
2019-02-24T23:05:15.372Z,7.10
2019-02-24T23:07:41.409Z,7.10
2019-02-24T23:10:07.423Z,7.10
2019-02-24T23:12:33.464Z,7.10
2019-02-24T23:14:59.475Z,7.10
2019-02-24T23:17:25.591Z,7.10
2019-02-24T23:19:51.616Z,7.00
2019-02-24T23:22:17.654Z,7.00
2019-02-24T23:24:43.668Z,7.00
2019-02-24T23:27:09.717Z,7.00
2019-02-24T23:29:35.764Z,7.00
2019-02-24T23:32:01.795Z,6.90
2019-02-24T23:34:27.908Z,6.90
2019-02-24T23:36:54.007Z,6.80
2019-02-24T23:39:39.892Z,6.70
2019-02-24T23:42:06.019Z,6.80
2019-02-24T23:44:32.132Z,6.70
2019-02-24T23:46:58.185Z,6.60
2019-02-24T23:49:24.275Z,6.60
2019-02-24T23:51:50.304Z,6.50
2019-02-24T23:54:16.343Z,6.40
2019-02-24T23:56:42.383Z,6.40
2019-02-24T23:59:08.400Z,6.40
